createdAt,value
2023-01-12T00:02:14.498Z,100312.47
2023-01-12T00:04:42.771Z,100318.41
2023-01-12T00:07:12.711Z,100310.88
2023-01-12T00:09:41.220Z,100304.66
2023-01-12T00:12:12.781Z,100307.69
2023-01-12T00:14:41.260Z,100318.00
2023-01-12T00:17:11.976Z,100319.25
2023-01-12T00:19:40.212Z,100319.25
2023-01-12T00:22:12.115Z,100324.06
2023-01-12T00:24:42.225Z,100332.50
2023-01-12T00:27:15.577Z,100331.22
2023-01-12T00:29:44.463Z,100319.59
2023-01-12T00:32:14.339Z,100302.78
2023-01-12T00:34:42.435Z,100297.03
2023-01-12T00:37:10.754Z,100295.31
2023-01-12T00:39:43.096Z,100299.88
2023-01-12T00:42:33.163Z,100310.22
2023-01-12T00:45:18.869Z,100295.63
2023-01-12T00:47:47.344Z,100302.44
2023-01-12T00:50:17.836Z,100301.00
2023-01-12T00:52:47.795Z,100298.03
2023-01-12T00:55:16.111Z,100303.34
2023-01-12T00:57:45.448Z,100311.50
2023-01-12T01:00:14.823Z,100300.69
2023-01-12T01:02:42.927Z,100285.81
2023-01-12T01:05:11.089Z,100284.03
2023-01-12T01:07:39.413Z,100281.53
2023-01-12T01:10:08.685Z,100270.66
2023-01-12T01:12:36.850Z,100288.22
2023-01-12T01:15:07.520Z,100281.25
2023-01-12T01:17:35.646Z,100280.94
2023-01-12T01:20:05.128Z,100292.25
2023-01-12T01:22:33.424Z,100285.81
2023-01-12T01:25:01.411Z,100279.16
2023-01-12T01:27:29.483Z,100280.66
2023-01-12T01:29:57.764Z,100268.75
2023-01-12T01:32:27.183Z,100274.91
2023-01-12T01:34:55.218Z,100277.34
2023-01-12T01:37:23.460Z,100275.84
2023-01-12T01:39:51.478Z,100277.56
2023-01-12T01:42:28.719Z,100275.09
2023-01-12T01:44:58.768Z,100274.50
2023-01-12T01:47:34.225Z,100272.88
2023-01-12T01:50:04.813Z,100283.00
2023-01-12T01:52:36.025Z,100274.59
2023-01-12T01:55:09.587Z,100273.12
2023-01-12T01:57:43.659Z,100269.88
2023-01-12T02:00:14.028Z,100262.97
2023-01-12T02:02:47.458Z,100248.75
2023-01-12T02:05:20.066Z,100257.69
2023-01-12T02:07:48.862Z,100244.97
2023-01-12T02:10:17.860Z,100232.88
2023-01-12T02:13:04.226Z,100236.69
2023-01-12T02:15:58.433Z,100232.22
2023-01-12T02:18:31.988Z,100234.28
2023-01-12T02:21:10.497Z,100234.16
2023-01-12T02:24:23.516Z,100229.59
2023-01-12T02:27:22.921Z,100228.84
2023-01-12T02:30:23.438Z,100218.56
2023-01-12T02:33:05.451Z,100221.22
2023-01-12T02:35:39.289Z,100219.75
2023-01-12T02:38:17.136Z,100208.34
2023-01-12T02:40:53.607Z,100214.44
2023-01-12T02:43:26.118Z,100205.69
2023-01-12T02:46:00.010Z,100189.37
2023-01-12T02:48:35.323Z,100184.06
2023-01-12T02:51:09.540Z,100181.06
2023-01-12T02:53:43.237Z,100184.38
2023-01-12T02:56:13.547Z,100183.31
2023-01-12T02:58:46.127Z,100170.25
2023-01-12T03:01:17.032Z,100168.75
2023-01-12T03:03:49.069Z,100153.16
2023-01-12T03:06:17.712Z,100163.56
2023-01-12T03:08:48.967Z,100155.69
2023-01-12T03:11:19.290Z,100161.63
2023-01-12T03:13:50.395Z,100160.78
2023-01-12T03:16:22.167Z,100159.63
2023-01-12T03:18:57.402Z,100157.72
2023-01-12T03:21:29.919Z,100158.25
2023-01-12T03:24:05.418Z,100149.97
2023-01-12T03:26:36.884Z,100149.88
2023-01-12T03:29:11.235Z,100146.88
2023-01-12T03:31:39.619Z,100141.16
2023-01-12T03:34:10.106Z,100133.06
2023-01-12T03:36:47.068Z,100138.38
2023-01-12T03:39:23.751Z,100141.91
2023-01-12T03:41:58.517Z,100139.97
2023-01-12T03:44:32.418Z,100144.56
2023-01-12T03:47:05.050Z,100142.94
2023-01-12T03:49:40.552Z,100131.28
2023-01-12T03:52:10.976Z,100133.09
2023-01-12T03:54:41.329Z,100123.31
2023-01-12T03:57:12.248Z,100125.00
2023-01-12T03:59:40.895Z,100128.84
2023-01-12T04:02:09.909Z,100130.75
2023-01-12T04:04:39.674Z,100121.16
2023-01-12T04:07:07.585Z,100118.81
2023-01-12T04:09:35.563Z,100123.94
2023-01-12T04:12:12.986Z,100121.06
2023-01-12T04:14:43.143Z,100118.50
2023-01-12T04:17:13.287Z,100119.25
2023-01-12T04:19:43.492Z,100116.03
2023-01-12T04:22:33.959Z,100121.03
2023-01-12T04:25:01.915Z,100117.78
2023-01-12T04:27:31.224Z,100122.44
2023-01-12T04:30:00.163Z,100120.31
2023-01-12T04:32:28.142Z,100112.13
2023-01-12T04:34:57.836Z,100113.19
2023-01-12T04:37:26.001Z,100102.56
2023-01-12T04:39:54.131Z,100110.97
2023-01-12T04:42:40.705Z,100100.25
2023-01-12T04:45:10.222Z,100099.13
2023-01-12T04:47:39.230Z,100094.34
2023-01-12T04:50:11.138Z,100094.34
2023-01-12T04:52:42.363Z,100102.88
2023-01-12T04:55:10.961Z,100099.03
2023-01-12T04:57:39.615Z,100092.13
2023-01-12T05:00:09.571Z,100089.88
2023-01-12T05:02:37.654Z,100082.56
2023-01-12T05:05:08.514Z,100087.28
2023-01-12T05:07:57.880Z,100075.34
2023-01-12T05:10:25.322Z,100075.03
2023-01-12T05:12:53.364Z,100062.16
2023-01-12T05:15:21.570Z,100058.56
2023-01-12T05:17:50.029Z,100064.63
2023-01-12T05:20:19.466Z,100071.88
2023-01-12T05:22:51.423Z,100065.91
2023-01-12T05:25:20.014Z,100061.75
2023-01-12T05:27:48.518Z,100062.81
2023-01-12T05:30:17.499Z,100062.19
2023-01-12T05:32:45.926Z,100071.81
2023-01-12T05:35:13.899Z,100073.31
2023-01-12T05:37:42.607Z,100071.28
2023-01-12T05:40:15.397Z,100077.13
2023-01-12T05:43:00.943Z,100078.78
2023-01-12T05:45:29.149Z,100073.41
2023-01-12T05:48:02.123Z,100079.62
2023-01-12T05:50:30.362Z,100075.41
2023-01-12T05:53:08.660Z,100073.28
2023-01-12T05:55:39.514Z,100063.00
2023-01-12T05:58:07.690Z,100059.22
2023-01-12T06:00:35.871Z,100053.34
2023-01-12T06:03:04.376Z,100056.16
2023-01-12T06:05:32.327Z,100052.44
2023-01-12T06:08:00.727Z,100059.84
2023-01-12T06:10:28.910Z,100058.31
2023-01-12T06:13:15.973Z,100057.50
2023-01-12T06:15:44.422Z,100061.31
2023-01-12T06:18:12.587Z,100057.47
2023-01-12T06:20:40.570Z,100049.84
2023-01-12T06:23:08.779Z,100040.50
2023-01-12T06:25:36.721Z,100047.94
2023-01-12T06:28:07.625Z,100042.12
2023-01-12T06:30:36.375Z,100042.53
2023-01-12T06:33:04.555Z,100039.03
2023-01-12T06:35:32.681Z,100041.53
2023-01-12T06:38:01.080Z,100032.28
2023-01-12T06:40:29.221Z,100030.41
2023-01-12T06:42:57.228Z,100035.28
2023-01-12T06:45:26.951Z,100022.31
2023-01-12T06:47:57.277Z,100024.03
2023-01-12T06:50:25.734Z,100027.19
2023-01-12T06:52:53.727Z,100020.78
2023-01-12T06:55:22.087Z,100021.62
2023-01-12T06:57:50.478Z,100016.41
2023-01-12T07:00:19.130Z,100011.28
2023-01-12T07:02:51.742Z,100013.28
2023-01-12T07:05:20.191Z,100012.16
2023-01-12T07:07:48.231Z,100009.63
2023-01-12T07:10:17.446Z,100003.37
2023-01-12T07:12:45.726Z,99993.06
2023-01-12T07:15:15.465Z,99994.28
2023-01-12T07:17:43.907Z,99986.25
2023-01-12T07:20:13.748Z,99987.63
2023-01-12T07:22:41.791Z,99988.13
2023-01-12T07:25:10.520Z,99989.59
2023-01-12T07:27:38.803Z,99978.97
2023-01-12T07:30:07.984Z,99987.19
2023-01-12T07:32:35.943Z,99976.28
2023-01-12T07:35:04.343Z,99976.81
2023-01-12T07:37:33.727Z,99979.13
2023-01-12T07:40:01.701Z,99978.06
2023-01-12T07:42:30.303Z,99974.25
2023-01-12T07:44:58.286Z,99982.47
2023-01-12T07:47:27.792Z,99975.41
2023-01-12T07:49:55.973Z,99969.94
2023-01-12T07:52:23.961Z,99966.50
2023-01-12T07:54:53.264Z,99968.22
2023-01-12T07:57:21.499Z,99971.53
2023-01-12T07:59:49.521Z,99963.37
2023-01-12T08:02:17.587Z,99960.59
2023-01-12T08:04:46.495Z,99962.28
2023-01-12T08:07:14.904Z,99963.91
2023-01-12T08:09:42.912Z,99955.03
2023-01-12T08:12:12.552Z,99957.47
2023-01-12T08:14:42.359Z,99954.47
2023-01-12T08:17:15.212Z,99963.56
2023-01-12T08:19:46.910Z,99952.78
2023-01-12T08:22:19.997Z,99958.25
2023-01-12T08:24:53.264Z,99943.97
2023-01-12T08:27:27.105Z,99949.78
2023-01-12T08:29:58.619Z,99948.66
2023-01-12T08:32:29.233Z,99953.88
2023-01-12T08:35:01.657Z,99949.78
2023-01-12T08:37:30.946Z,99949.53
2023-01-12T08:39:59.604Z,99952.22
2023-01-12T08:42:31.523Z,99946.00
2023-01-12T08:45:00.136Z,99950.28
2023-01-12T08:47:30.438Z,99946.50
2023-01-12T08:50:00.548Z,99937.47
2023-01-12T08:52:31.707Z,99928.50
2023-01-12T08:54:59.786Z,99917.75
2023-01-12T08:57:29.200Z,99913.38
2023-01-12T08:59:57.840Z,99906.59
2023-01-12T09:02:27.156Z,99890.75
2023-01-12T09:04:55.495Z,99897.28
2023-01-12T09:07:23.653Z,99883.62
2023-01-12T09:09:51.662Z,99885.81
2023-01-12T09:12:19.590Z,99872.88
2023-01-12T09:14:49.027Z,99867.53
2023-01-12T09:17:17.013Z,99847.56
2023-01-12T09:19:48.092Z,99840.09
2023-01-12T09:22:16.338Z,99845.72
2023-01-12T09:24:45.297Z,99850.84
2023-01-12T09:27:13.278Z,99864.63
2023-01-12T09:29:41.579Z,99870.19
2023-01-12T09:32:11.008Z,99872.13
2023-01-12T09:34:39.009Z,99865.56
2023-01-12T09:37:07.337Z,99860.56
2023-01-12T09:39:35.454Z,99845.81
2023-01-12T09:42:24.353Z,99843.28
2023-01-12T09:45:11.735Z,99850.75
2023-01-12T09:47:49.824Z,99850.44
2023-01-12T09:50:23.234Z,99847.38
2023-01-12T09:52:56.788Z,99840.03
2023-01-12T09:55:27.010Z,99845.16
2023-01-12T09:58:27.165Z,99845.16
2023-01-12T10:00:57.777Z,99836.44
2023-01-12T10:03:32.173Z,99833.50
2023-01-12T10:06:01.494Z,99843.50
2023-01-12T10:08:35.307Z,99843.00
2023-01-12T10:11:12.803Z,99833.13
2023-01-12T10:14:10.534Z,99838.25
2023-01-12T10:16:51.335Z,99839.84
2023-01-12T10:19:26.778Z,99835.78
2023-01-12T10:21:55.427Z,99837.81
2023-01-12T10:24:25.648Z,99829.47
2023-01-12T10:27:01.157Z,99829.25
2023-01-12T10:29:31.580Z,99834.31
2023-01-12T10:31:59.560Z,99841.87
2023-01-12T10:34:30.245Z,99840.59
2023-01-12T10:37:08.857Z,99833.91
2023-01-12T10:39:39.707Z,99840.97
2023-01-12T10:42:40.864Z,99833.44
2023-01-12T10:45:18.743Z,99836.56
2023-01-12T10:47:49.003Z,99835.03
2023-01-12T10:50:24.638Z,99831.34
2023-01-12T10:53:00.895Z,99830.03
2023-01-12T10:55:33.421Z,99820.69
2023-01-12T10:58:02.059Z,99826.44
2023-01-12T11:00:30.977Z,99818.50
2023-01-12T11:02:59.176Z,99823.38
2023-01-12T11:05:31.759Z,99819.09
2023-01-12T11:07:59.970Z,99828.13
2023-01-12T11:10:30.376Z,99824.63
2023-01-12T11:13:00.425Z,99827.78
2023-01-12T11:15:30.034Z,99817.00
2023-01-12T11:18:13.607Z,99822.66
2023-01-12T11:20:48.661Z,99811.22
2023-01-12T11:23:21.620Z,99814.22
2023-01-12T11:25:53.048Z,99812.34
2023-01-12T11:28:24.872Z,99808.59
2023-01-12T11:30:57.963Z,99801.13
2023-01-12T11:33:30.026Z,99801.50
2023-01-12T11:36:04.289Z,99792.75
2023-01-12T11:38:36.367Z,99795.94
2023-01-12T11:41:10.801Z,99790.06
2023-01-12T11:43:50.823Z,99797.56
2023-01-12T11:46:24.987Z,99799.50
2023-01-12T11:49:01.316Z,99795.06
2023-01-12T11:51:31.030Z,99786.28
2023-01-12T11:53:59.109Z,99776.41
2023-01-12T11:56:51.125Z,99767.06
2023-01-12T11:59:25.639Z,99769.78
2023-01-12T12:02:01.664Z,99772.50
2023-01-12T12:04:47.021Z,99766.94
2023-01-12T12:07:33.803Z,99770.22
2023-01-12T12:10:18.463Z,99759.16
2023-01-12T12:13:13.229Z,99760.22
2023-01-12T12:15:50.120Z,99756.91
2023-01-12T12:18:32.823Z,99753.38
2023-01-12T12:21:12.173Z,99753.59
2023-01-12T12:23:54.879Z,99749.22
2023-01-12T12:26:27.994Z,99742.06
2023-01-12T12:29:22.621Z,99754.44
2023-01-12T12:32:01.756Z,99739.78
2023-01-12T12:34:50.613Z,99751.16
2023-01-12T12:37:27.690Z,99746.81
2023-01-12T12:40:02.320Z,99749.47
2023-01-12T12:43:13.716Z,99745.25
2023-01-12T12:45:48.143Z,99740.34
2023-01-12T12:48:19.253Z,99739.34
2023-01-12T12:50:56.837Z,99733.87
2023-01-12T12:53:28.312Z,99735.31
2023-01-12T12:56:02.431Z,99737.38
2023-01-12T12:58:50.031Z,99740.59
2023-01-12T13:01:58.403Z,99734.25
2023-01-12T13:05:03.811Z,99735.56
2023-01-12T13:08:02.979Z,99749.03
2023-01-12T13:10:32.250Z,99749.03
2023-01-12T13:13:17.562Z,99752.13
2023-01-12T13:15:46.840Z,99744.97
2023-01-12T13:18:42.857Z,99738.56
2023-01-12T13:21:29.852Z,99748.13
2023-01-12T13:24:26.913Z,99739.94
2023-01-12T13:26:57.673Z,99728.78
2023-01-12T13:29:44.230Z,99728.06
2023-01-12T13:32:42.008Z,99723.66
2023-01-12T13:35:44.676Z,99727.94
2023-01-12T13:38:20.393Z,99740.81
2023-01-12T13:40:56.010Z,99722.47
2023-01-12T13:43:27.494Z,99729.84
2023-01-12T13:46:00.887Z,99727.88
2023-01-12T13:48:31.195Z,99735.97
2023-01-12T13:51:02.511Z,99736.66
2023-01-12T13:53:33.444Z,99733.53
2023-01-12T13:56:04.696Z,99735.22
2023-01-12T13:58:40.800Z,99727.25
2023-01-12T14:01:19.075Z,99738.38
2023-01-12T14:04:05.942Z,99733.00
2023-01-12T14:06:45.215Z,99737.69
2023-01-12T14:09:23.274Z,99737.81
2023-01-12T14:12:16.186Z,99734.19
2023-01-12T14:15:24.094Z,99731.06
2023-01-12T14:17:57.556Z,99738.66
2023-01-12T14:20:28.042Z,99743.16
2023-01-12T14:23:14.555Z,99738.41
2023-01-12T14:25:43.268Z,99744.88
2023-01-12T14:28:20.405Z,99738.69
2023-01-12T14:30:52.605Z,99737.56
2023-01-12T14:33:22.301Z,99738.69
2023-01-12T14:35:54.699Z,99743.28
2023-01-12T14:38:25.369Z,99747.78
2023-01-12T14:41:01.085Z,99745.44
2023-01-12T14:43:51.887Z,99747.97
2023-01-12T14:46:26.689Z,99751.72
2023-01-12T14:49:00.812Z,99746.81
2023-01-12T14:51:34.013Z,99743.16
2023-01-12T14:54:17.417Z,99750.69
2023-01-12T14:56:50.954Z,99743.38
2023-01-12T14:59:23.762Z,99748.06
2023-01-12T15:01:52.818Z,99750.75
2023-01-12T15:04:24.389Z,99748.38
2023-01-12T15:07:04.229Z,99759.16
2023-01-12T15:09:34.336Z,99753.94
2023-01-12T15:12:25.418Z,99757.22
2023-01-12T15:14:54.921Z,99747.38
2023-01-12T15:17:40.917Z,99749.44
2023-01-12T15:20:31.167Z,99752.00
2023-01-12T15:23:16.975Z,99745.81
2023-01-12T15:25:46.488Z,99750.22
2023-01-12T15:28:14.834Z,99741.47
2023-01-12T15:30:44.761Z,99741.34
2023-01-12T15:33:13.962Z,99737.81
2023-01-12T15:35:46.281Z,99737.13
2023-01-12T15:38:16.241Z,99738.69
2023-01-12T15:40:46.567Z,99728.69
2023-01-12T15:43:15.653Z,99736.69
2023-01-12T15:45:46.206Z,99724.75
2023-01-12T15:48:15.215Z,99748.19
2023-01-12T15:50:45.027Z,99735.53
2023-01-12T15:53:15.396Z,99732.44
2023-01-12T15:55:43.881Z,99735.00
2023-01-12T15:58:12.232Z,99745.25
2023-01-12T16:00:40.315Z,99740.78
2023-01-12T16:03:28.843Z,99749.19
2023-01-12T16:06:00.593Z,99746.09
2023-01-12T16:08:29.588Z,99756.94
2023-01-12T16:11:13.601Z,99756.66
2023-01-12T16:13:42.298Z,99756.41
2023-01-12T16:16:16.234Z,99752.75
2023-01-12T16:18:46.431Z,99746.81
2023-01-12T16:21:16.806Z,99750.78
2023-01-12T16:23:45.424Z,99738.12
2023-01-12T16:26:13.454Z,99743.19
2023-01-12T16:28:41.492Z,99736.28
2023-01-12T16:31:12.833Z,99740.06
2023-01-12T16:33:42.148Z,99742.34
2023-01-12T16:36:15.834Z,99746.28
2023-01-12T16:38:43.925Z,99739.78
2023-01-12T16:41:14.152Z,99742.44
2023-01-12T16:43:42.840Z,99743.19
2023-01-12T16:46:14.769Z,99730.41
2023-01-12T16:48:44.119Z,99722.66
2023-01-12T16:51:14.294Z,99728.72
2023-01-12T16:53:42.954Z,99734.47
2023-01-12T16:56:12.001Z,99738.84
2023-01-12T16:58:41.851Z,99730.41
2023-01-12T17:01:12.397Z,99727.72
2023-01-12T17:03:41.768Z,99730.09
2023-01-12T17:06:11.789Z,99741.22
2023-01-12T17:08:42.455Z,99734.19
2023-01-12T17:11:13.496Z,99736.00
2023-01-12T17:13:41.925Z,99727.75
2023-01-12T17:16:11.808Z,99731.66
2023-01-12T17:18:40.614Z,99725.19
2023-01-12T17:21:16.491Z,99730.81
2023-01-12T17:23:51.016Z,99732.78
2023-01-12T17:26:19.781Z,99724.88
2023-01-12T17:28:48.550Z,99720.94
2023-01-12T17:31:19.291Z,99725.47
2023-01-12T17:33:47.501Z,99715.34
2023-01-12T17:36:17.090Z,99715.62
2023-01-12T17:38:45.398Z,99716.47
2023-01-12T17:41:30.725Z,99708.56
2023-01-12T17:43:59.915Z,99712.94
2023-01-12T17:46:27.971Z,99701.28
2023-01-12T17:48:58.563Z,99699.88
2023-01-12T17:51:27.241Z,99698.00
2023-01-12T17:53:55.826Z,99696.22
2023-01-12T17:56:25.394Z,99694.66
2023-01-12T17:58:54.953Z,99690.31
2023-01-12T18:01:24.742Z,99692.31
2023-01-12T18:03:53.680Z,99686.66
2023-01-12T18:06:28.385Z,99691.72
2023-01-12T18:09:06.531Z,99687.34
2023-01-12T18:11:37.417Z,99691.44
2023-01-12T18:14:06.946Z,99693.25
2023-01-12T18:16:39.579Z,99706.06
2023-01-12T18:19:14.927Z,99700.31
2023-01-12T18:21:50.198Z,99699.03
2023-01-12T18:24:19.825Z,99702.97
2023-01-12T18:26:50.891Z,99703.37
2023-01-12T18:29:22.719Z,99700.69
2023-01-12T18:31:51.057Z,99706.06
2023-01-12T18:34:20.026Z,99700.31
2023-01-12T18:36:48.798Z,99707.88
2023-01-12T18:39:19.149Z,99710.00
2023-01-12T18:42:05.723Z,99712.69
2023-01-12T18:44:35.690Z,99720.53
2023-01-12T18:47:24.482Z,99716.47
2023-01-12T18:49:54.305Z,99726.06
2023-01-12T18:52:40.562Z,99724.34
2023-01-12T18:55:09.098Z,99726.06
2023-01-12T18:57:37.463Z,99736.72
2023-01-12T19:00:17.004Z,99724.63
2023-01-12T19:02:45.907Z,99723.03
2023-01-12T19:05:20.691Z,99729.13
2023-01-12T19:08:04.582Z,99722.66
2023-01-12T19:10:34.670Z,99718.75
2023-01-12T19:13:17.193Z,99716.19
2023-01-12T19:16:03.980Z,99713.38
2023-01-12T19:18:32.355Z,99711.69
2023-01-12T19:21:17.011Z,99713.09
2023-01-12T19:24:03.021Z,99708.47
2023-01-12T19:26:48.509Z,99699.34
2023-01-12T19:29:16.773Z,99703.00
2023-01-12T19:31:46.087Z,99689.06
2023-01-12T19:34:14.181Z,99690.47
2023-01-12T19:36:42.546Z,99691.16
2023-01-12T19:39:11.251Z,99691.31
2023-01-12T19:41:56.822Z,99694.56
2023-01-12T19:44:25.210Z,99692.16
2023-01-12T19:46:54.399Z,99691.72
2023-01-12T19:49:22.396Z,99680.31
2023-01-12T19:51:50.844Z,99697.22
2023-01-12T19:54:18.848Z,99688.91
2023-01-12T19:56:47.652Z,99679.50
2023-01-12T19:59:15.917Z,99683.03
2023-01-12T20:01:44.024Z,99681.34
2023-01-12T20:04:13.696Z,99677.38
2023-01-12T20:06:41.721Z,99683.28
2023-01-12T20:09:09.752Z,99680.47
2023-01-12T20:11:38.050Z,99675.69
2023-01-12T20:14:06.142Z,99669.25
2023-01-12T20:16:34.641Z,99667.41
2023-01-12T20:19:04.151Z,99660.78
2023-01-12T20:21:33.436Z,99655.75
2023-01-12T20:24:02.508Z,99650.56
2023-01-12T20:26:30.825Z,99654.59
2023-01-12T20:29:00.463Z,99653.62
2023-01-12T20:31:28.835Z,99654.31
2023-01-12T20:33:57.160Z,99655.47
2023-01-12T20:36:25.314Z,99657.16
2023-01-12T20:38:54.767Z,99646.44
2023-01-12T20:41:23.448Z,99659.41
2023-01-12T20:43:51.529Z,99648.16
2023-01-12T20:46:19.602Z,99644.78
2023-01-12T20:48:47.901Z,99637.22
2023-01-12T20:51:17.241Z,99634.66
2023-01-12T20:53:45.209Z,99641.13
2023-01-12T20:56:15.119Z,99638.47
2023-01-12T20:58:43.134Z,99641.72
2023-01-12T21:01:11.991Z,99630.31
2023-01-12T21:03:40.438Z,99642.97
2023-01-12T21:06:09.742Z,99638.19
2023-01-12T21:08:39.016Z,99643.66
2023-01-12T21:11:07.367Z,99645.34
2023-01-12T21:13:36.838Z,99637.47
2023-01-12T21:16:06.875Z,99640.00
2023-01-12T21:18:36.036Z,99632.94
2023-01-12T21:21:04.763Z,99639.75
2023-01-12T21:23:33.058Z,99630.06
2023-01-12T21:26:01.466Z,99624.28
2023-01-12T21:28:30.605Z,99626.81
2023-01-12T21:31:03.036Z,99633.00
2023-01-12T21:33:31.817Z,99626.41
2023-01-12T21:36:00.600Z,99628.22
2023-01-12T21:38:28.910Z,99640.59
2023-01-12T21:41:02.894Z,99633.28
2023-01-12T21:43:30.206Z,99633.28
2023-01-12T21:46:06.422Z,99641.16
2023-01-12T21:48:34.639Z,99628.94
2023-01-12T21:51:03.483Z,99633.44
2023-01-12T21:53:31.930Z,99634.69
2023-01-12T21:56:01.780Z,99639.31
2023-01-12T21:58:32.751Z,99630.47
2023-01-12T22:01:01.358Z,99635.50
2023-01-12T22:03:30.943Z,99627.50
2023-01-12T22:06:05.460Z,99628.22
2023-01-12T22:08:34.705Z,99628.09
2023-01-12T22:11:07.865Z,99629.78
2023-01-12T22:13:36.445Z,99632.00
2023-01-12T22:16:05.478Z,99634.13
2023-01-12T22:18:35.599Z,99634.28
2023-01-12T22:21:05.469Z,99634.41
2023-01-12T22:23:34.079Z,99630.75
2023-01-12T22:26:03.135Z,99629.06
2023-01-12T22:28:33.591Z,99630.75
2023-01-12T22:31:08.161Z,99631.16
2023-01-12T22:33:38.082Z,99637.34
2023-01-12T22:36:07.332Z,99631.84
2023-01-12T22:38:35.348Z,99629.06
2023-01-12T22:41:07.104Z,99628.09
2023-01-12T22:43:40.515Z,99624.81
2023-01-12T22:46:15.705Z,99625.97
2023-01-12T22:48:45.544Z,99616.56
2023-01-12T22:51:13.911Z,99614.03
2023-01-12T22:53:42.719Z,99615.00
2023-01-12T22:56:12.010Z,99600.81
2023-01-12T22:58:40.448Z,99602.91
2023-01-12T23:01:10.417Z,99599.41
2023-01-12T23:03:59.853Z,99595.06
2023-01-12T23:06:28.911Z,99582.25
2023-01-12T23:08:57.072Z,99583.94
2023-01-12T23:11:27.718Z,99592.25
2023-01-12T23:13:57.117Z,99583.78
2023-01-12T23:16:25.810Z,99581.00
2023-01-12T23:18:55.506Z,99574.81
2023-01-12T23:21:27.600Z,99573.00
2023-01-12T23:23:57.421Z,99573.41
2023-01-12T23:26:28.063Z,99572.00
2023-01-12T23:28:59.384Z,99568.66
2023-01-12T23:31:30.121Z,99570.44
2023-01-12T23:33:58.723Z,99569.19
2023-01-12T23:36:30.785Z,99580.56
2023-01-12T23:39:00.886Z,99580.16
2023-01-12T23:41:30.737Z,99581.84
2023-01-12T23:44:01.363Z,99578.44
2023-01-12T23:46:31.308Z,99575.94
2023-01-12T23:49:00.496Z,99576.50
2023-01-12T23:51:30.910Z,99570.19
2023-01-12T23:54:01.350Z,99564.69
2023-01-12T23:56:31.216Z,99567.06
2023-01-12T23:58:59.871Z,99566.22
